• Join FlightAware (Why Join?)
  • Login
  • US Flag 
11:52AM EDT


 

Airport Tracker/Info


-or-


 

Live Flight TrackerFlight Track Log ✈ GLA61C ✈ 20-Apr-2013 ✈ KCEZ - KDEN

Flight Track Log - Related Links

Times and Time Zones

All times are in EDT time to prevent confusion due to time zone crossing. See the GLA61C flight status page for this flight to view local times or setup timezone preferences in your user account.

Time Position Orientation Groundspeed Altitude Reporting Facility
EDT Latitude Longitude Course Direction KTS MPH feet Rate Location/Type
09:12AM 37.3814 -108.5692 45° Northeast 154 177 10,700  Level Denver Center
09:13AM 37.4139 -108.5278 45° Northeast 159 183 12,800 2,220 Climbing Denver Center
09:14AM 37.4544 -108.4719 48° Northeast 177 204 15,200 2,040 Climbing Denver Center
09:15AM 37.4922 -108.4228 46° Northeast 195 224 17,000 1,680 Climbing Denver Center
09:16AM 37.5225 -108.3642 57° Northeast 203 234 18,700 1,740 Climbing Denver Center
09:17AM 37.5633 -108.2967 53° Northeast 213 245 20,600 1,560 Climbing Denver Center
09:18AM 37.6006 -108.2450 48° Northeast 211 243 21,900 1,260 Climbing Denver Center
09:19AM 37.6367 -108.1833 54° Northeast 221 254 23,200 1,260 Climbing Denver Center
09:20AM 37.6808 -108.1158 50° Northeast 223 257 24,500 840 Climbing Denver Center
09:21AM 37.7222 -108.0594 47° Northeast 229 264 25,000 240 Climbing Denver Center
09:22AM 37.7686 -107.9947 48° Northeast 252 290 25,000  Level Denver Center
09:23AM 37.8250 -107.9147 48° Northeast 269 310 25,000  Level Denver Center
09:24AM 37.8744 -107.8461 48° Northeast 274 315 25,000 -60 Level Denver Center
09:25AM 37.9269 -107.7831 43° Northeast 273 314 24,900  Descending Denver Center
09:26AM 37.9839 -107.7028 48° Northeast 273 314 25,000  Climbing Denver Center
09:27AM 38.0308 -107.6319 50° Northeast 274 315 24,900 -60 Descending Denver Center
09:28AM 38.0817 -107.5550 50° Northeast 273 314 24,900  Level Denver Center
09:29AM 38.1317 -107.4911 45° Northeast 268 308 24,900  Level Denver Center
09:30AM 38.1814 -107.4289 45° Northeast 264 304 24,900  Level Denver Center
09:31AM 38.2403 -107.3561 44° Northeast 263 303 25,000  Climbing Denver Center
09:32AM 38.2878 -107.2908 47° Northeast 263 303 25,000  Level Denver Center
09:33AM 38.3308 -107.2181 53° Northeast 267 307 25,000  Level Denver Center
09:34AM 38.3772 -107.1383 53° Northeast 270 311 25,000 -60 Level Denver Center
09:35AM 38.4242 -107.0614 52° Northeast 273 314 24,900  Descending Denver Center
09:36AM 38.4661 -106.9794 57° Northeast 278 320 25,000  Climbing Denver Center
09:37AM 38.4992 -106.8897 65° Northeast 280 322 25,000 -60 Level Denver Center
09:38AM 38.5333 -106.8017 64° Northeast 279 321 24,900  Descending Denver Center
09:39AM 38.5661 -106.7117 65° Northeast 280 322 25,000  Climbing Denver Center
09:40AM 38.5967 -106.6219 66° East 277 319 25,000  Level Denver Center
09:41AM 38.6275 -106.5331 66° East 275 316 25,000  Level Denver Center
09:42AM 38.6589 -106.4428 66° East 277 319 25,000  Level Denver Center
09:43AM 38.6878 -106.3531 68° East 273 314 25,000  Level Denver Center
09:44AM 38.7186 -106.2411 71° East 277 319 25,000 -60 Level Denver Center
09:45AM 38.7486 -106.1514 67° East 274 315 24,900  Descending Denver Center
09:46AM 38.7819 -106.0692 63° Northeast 272 313 25,000  Climbing Denver Center
09:47AM 38.8175 -105.9850 62° Northeast 276 318 25,000  Level Denver Center
09:48AM 38.8714 -105.9006 51° Northeast 275 316 25,000 -120 Level Denver Center
09:49AM 38.9175 -105.8308 50° Northeast 268 308 24,800 -600 Descending Denver Center
09:50AM 38.9664 -105.7606 48° Northeast 274 315 23,800 -1,140 Descending Denver Center
09:51AM 39.0208 -105.6839 48° Northeast 261 300 22,600 -1,320 Descending Denver Center
09:52AM 39.0683 -105.6153 48° Northeast 266 306 21,200 -1,380 Descending Denver Center
09:53AM 39.1244 -105.5375 47° Northeast 266 306 19,600 -1,620 Descending Denver Center
09:54AM 39.1797 -105.4528 50° Northeast 276 318 17,700 -1,800 Descending Denver Center
09:55AM 39.2303 -105.3708 51° Northeast 273 314 16,000 -1,560 Descending Denver Center
09:57AM 39.2819 -105.3036 45° Northeast 268 308 14,600 -1,020 Descending Denver Center
09:58AM 39.3336 -105.2347 46° Northeast 266 306 14,000 -300 Descending Denver Center
09:59AM 39.3864 -105.1675 45° Northeast 265 305 14,000  Level Denver Center
10:00AM 39.4389 -105.0992 45° Northeast 268 308 14,000  Level Denver Center
10:01AM 39.5000 -105.0308 41° Northeast 270 311 14,000 -720 Level Denver Center
10:02AM 39.5178 -104.9350 76° East 294 338 12,600 -1,860 Descending Denver Center
10:03AM 39.5558 -104.8606 56° Northeast 272 313 10,300 -2,100 Descending Denver Center
10:04AM 39.6111 -104.8014 40° Northeast 265 305 8,400 -1,140 Descending Denver Center
10:05AM 39.6642 -104.7244 48° Northeast 268 308 8,000 -300 Descending Denver Center
10:06AM 39.7211 -104.6706 36° Northeast 256 295 7,900 -720 Descending Denver Center
10:07AM 39.7764 -104.6608 North 188 216 6,600 -1,140 Descending Denver Center
10:08AM 39.8247 -104.6606 360° North 164 189 5,600 -1,020 Descending Denver Center
10:10AM 39.8500 -104.6667 346° North  Level FlightAware Approximate
10:17AM 39.8617 -104.6732 346° North  Level Estimated
10:18AM 39.8617 -104.6732 346° North  Level Estimated